createdAt,value
2018-03-26T00:01:09.169Z,57.20
2018-03-26T00:06:14.115Z,57.20
2018-03-26T00:11:19.222Z,57.20
2018-03-26T00:16:23.426Z,57.10
2018-03-26T00:21:27.800Z,57.20
2018-03-26T00:26:32.174Z,57.40
2018-03-26T00:31:36.844Z,57.50
2018-03-26T00:36:41.260Z,57.50
2018-03-26T00:41:46.021Z,59.10
2018-03-26T00:46:49.643Z,58.30
2018-03-26T00:51:54.500Z,59.30
2018-03-26T00:56:59.233Z,60.40
2018-03-26T01:02:03.625Z,60.30
2018-03-26T01:07:07.392Z,63.30
2018-03-26T01:12:12.424Z,63.80
2018-03-26T01:17:17.915Z,63.80
2018-03-26T01:22:22.326Z,64.10
2018-03-26T01:27:27.109Z,62.00
2018-03-26T01:32:32.200Z,61.50
2018-03-26T01:37:37.114Z,58.90
2018-03-26T01:42:41.305Z,59.50
2018-03-26T01:47:45.645Z,59.60
2018-03-26T01:52:50.126Z,59.10
2018-03-26T01:57:55.854Z,58.40
2018-03-26T02:03:01.000Z,58.30
2018-03-26T02:08:05.721Z,57.90
2018-03-26T02:13:10.171Z,57.80
2018-03-26T02:18:15.401Z,59.70
2018-03-26T02:23:19.717Z,59.70
2018-03-26T02:28:24.049Z,60.90
2018-03-26T02:33:28.434Z,60.00
2018-03-26T02:38:32.184Z,60.70
2018-03-26T02:43:36.357Z,59.90
2018-03-26T02:48:40.954Z,60.50
2018-03-26T02:53:46.574Z,60.10
2018-03-26T02:58:51.398Z,60.50
2018-03-26T03:03:55.114Z,58.40
2018-03-26T03:08:59.878Z,59.90
2018-03-26T03:14:03.086Z,59.80
2018-03-26T03:19:07.393Z,60.20
2018-03-26T03:24:11.465Z,59.60
2018-03-26T03:29:14.538Z,60.90
2018-03-26T03:34:18.928Z,62.90
2018-03-26T03:39:23.817Z,60.70
2018-03-26T03:44:28.391Z,59.50
2018-03-26T03:49:32.452Z,59.50
2018-03-26T03:54:36.569Z,59.70
2018-03-26T03:59:40.222Z,59.50
2018-03-26T04:04:43.621Z,61.10
2018-03-26T04:09:47.706Z,65.30
2018-03-26T04:14:53.046Z,65.60
2018-03-26T04:19:57.784Z,65.60
2018-03-26T04:25:02.677Z,65.70
2018-03-26T04:30:07.768Z,65.00
2018-03-26T04:35:11.896Z,63.00
2018-03-26T04:40:16.100Z,62.70
2018-03-26T04:45:20.040Z,61.00
2018-03-26T04:50:23.851Z,62.30
2018-03-26T04:55:28.476Z,63.00
2018-03-26T05:00:32.787Z,61.50
2018-03-26T05:05:38.711Z,63.30
2018-03-26T05:10:43.669Z,63.20
2018-03-26T05:15:48.498Z,63.20
2018-03-26T05:20:53.561Z,62.90
2018-03-26T05:25:58.359Z,62.20
2018-03-26T05:31:02.453Z,62.90
2018-03-26T05:36:04.052Z,63.90
2018-03-26T05:41:05.580Z,62.10
2018-03-26T05:46:07.133Z,61.40
2018-03-26T05:51:09.396Z,61.00
2018-03-26T05:56:11.052Z,61.00
2018-03-26T06:01:12.649Z,60.90
2018-03-26T06:06:14.196Z,60.60
2018-03-26T06:11:15.766Z,59.20
2018-03-26T06:16:17.333Z,59.20
2018-03-26T06:21:18.836Z,58.30
2018-03-26T06:26:21.139Z,60.10
2018-03-26T06:31:22.700Z,60.10
2018-03-26T06:36:27.233Z,60.60
2018-03-26T06:41:29.552Z,60.70
2018-03-26T06:46:31.050Z,60.60
2018-03-26T06:51:32.589Z,59.50
2018-03-26T06:56:34.340Z,57.90
2018-03-26T07:01:35.930Z,59.40
2018-03-26T07:06:37.542Z,58.90
2018-03-26T07:11:39.833Z,57.00
2018-03-26T07:16:41.402Z,57.50
2018-03-26T07:21:42.945Z,60.00
2018-03-26T07:26:44.524Z,59.70
2018-03-26T07:31:46.071Z,59.40
2018-03-26T07:36:47.659Z,58.90
2018-03-26T07:41:49.169Z,59.60
2018-03-26T07:46:50.688Z,57.00
2018-03-26T07:51:52.438Z,57.30
2018-03-26T07:56:54.011Z,58.10
2018-03-26T08:01:55.727Z,57.90
2018-03-26T08:06:58.029Z,54.10
2018-03-26T08:11:59.533Z,54.10
2018-03-26T08:17:01.147Z,55.10
2018-03-26T08:22:02.835Z,55.70
2018-03-26T08:27:05.146Z,56.30
2018-03-26T08:32:06.790Z,56.30
2018-03-26T08:37:09.056Z,56.60
2018-03-26T08:42:10.627Z,56.60
2018-03-26T08:47:12.085Z,57.40
2018-03-26T08:52:13.627Z,57.90
2018-03-26T08:57:15.213Z,57.40
2018-03-26T09:02:20.841Z,56.80
2018-03-26T09:07:26.892Z,57.00
2018-03-26T09:12:33.487Z,56.80
2018-03-26T09:17:43.369Z,56.80
2018-03-26T09:22:50.873Z,57.30
2018-03-26T09:28:03.344Z,55.80
2018-03-26T09:33:11.601Z,55.70
2018-03-26T09:38:18.343Z,55.60
2018-03-26T09:43:24.648Z,56.80
2018-03-26T09:48:31.466Z,58.00
2018-03-26T09:53:37.176Z,57.90
2018-03-26T09:58:43.373Z,57.80
2018-03-26T10:03:48.306Z,57.90
2018-03-26T10:08:55.917Z,58.60
2018-03-26T10:14:01.385Z,59.60
2018-03-26T10:19:08.477Z,63.30
2018-03-26T10:24:15.114Z,62.40
2018-03-26T10:29:19.836Z,63.60
2018-03-26T10:34:30.890Z,64.20
2018-03-26T10:39:35.660Z,63.80
2018-03-26T10:44:43.772Z,65.50
2018-03-26T10:49:47.158Z,66.50
2018-03-26T10:54:51.694Z,67.10
2018-03-26T10:59:57.597Z,67.10
2018-03-26T11:05:04.395Z,65.60
2018-03-26T11:10:08.400Z,66.60
2018-03-26T11:15:13.032Z,65.50
2018-03-26T11:20:16.160Z,64.60
2018-03-26T11:25:21.044Z,64.30
2018-03-26T11:30:26.819Z,57.80
2018-03-26T11:35:28.484Z,57.80
2018-03-26T11:40:33.095Z,59.00
2018-03-26T11:45:37.830Z,58.30
2018-03-26T11:50:41.441Z,56.00
2018-03-26T11:55:46.727Z,55.90
2018-03-26T12:00:56.738Z,54.10
2018-03-26T12:06:03.134Z,51.60
2018-03-26T12:11:09.862Z,48.10
2018-03-26T12:16:11.564Z,47.00
2018-03-26T12:21:16.252Z,46.70
2018-03-26T12:26:22.907Z,41.70
2018-03-26T12:31:27.614Z,40.50
2018-03-26T12:36:29.389Z,40.60
2018-03-26T12:41:30.918Z,41.20
2018-03-26T12:46:46.530Z,42.80
2018-03-26T12:52:07.198Z,45.40
2018-03-26T12:57:27.106Z,45.40
2018-03-26T13:02:29.897Z,56.80
2018-03-26T13:07:31.440Z,59.00
2018-03-26T13:12:33.025Z,51.90
2018-03-26T13:17:34.549Z,55.40
2018-03-26T13:22:36.890Z,48.40
2018-03-26T13:27:38.473Z,48.40
2018-03-26T13:32:40.009Z,50.40
2018-03-26T13:37:42.385Z,50.50
2018-03-26T13:42:43.932Z,50.30
2018-03-26T13:47:45.503Z,49.90
2018-03-26T13:52:47.005Z,49.90
2018-03-26T13:57:49.052Z,51.60
2018-03-26T14:02:50.613Z,49.70
2018-03-26T14:07:52.890Z,49.90
2018-03-26T14:13:13.680Z,47.50
2018-03-26T14:18:15.253Z,47.40
2018-03-26T14:23:16.789Z,47.50
2018-03-26T14:28:18.388Z,44.60
2018-03-26T14:33:19.913Z,46.50
2018-03-26T14:38:21.569Z,47.60
2018-03-26T14:43:23.155Z,48.20
2018-03-26T14:48:24.708Z,49.00
2018-03-26T14:53:26.216Z,52.20
2018-03-26T14:58:27.753Z,56.90
2018-03-26T15:03:29.306Z,57.00
2018-03-26T15:08:30.871Z,57.70
2018-03-26T15:13:32.500Z,58.50
2018-03-26T15:18:34.058Z,57.30
2018-03-26T15:23:35.642Z,55.10
2018-03-26T15:28:37.239Z,56.00
2018-03-26T15:33:39.526Z,52.90
2018-03-26T15:38:41.863Z,53.10
2018-03-26T15:43:43.563Z,53.00
2018-03-26T15:48:45.166Z,55.60
2018-03-26T15:53:46.676Z,56.00
2018-03-26T15:58:48.222Z,56.00
2018-03-26T16:03:49.804Z,55.10
2018-03-26T16:08:51.476Z,55.10
2018-03-26T16:13:53.017Z,54.40
2018-03-26T16:18:54.568Z,55.10
2018-03-26T16:23:56.842Z,55.80
2018-03-26T16:28:59.140Z,55.20
2018-03-26T16:34:01.436Z,54.90
2018-03-26T16:39:03.028Z,55.00
2018-03-26T16:44:04.607Z,55.40
2018-03-26T16:49:06.145Z,55.80
2018-03-26T16:54:07.903Z,54.80
2018-03-26T16:59:10.288Z,62.10
2018-03-26T17:04:11.878Z,62.10
2018-03-26T17:09:13.513Z,62.20
2018-03-26T17:14:15.081Z,62.60
2018-03-26T17:19:16.633Z,61.90
2018-03-26T17:24:18.193Z,60.80
2018-03-26T17:29:19.767Z,60.70
2018-03-26T17:34:21.389Z,63.30
2018-03-26T17:39:22.962Z,62.80
2018-03-26T17:44:24.506Z,63.30
2018-03-26T17:49:26.831Z,65.50
2018-03-26T17:54:28.357Z,65.40
2018-03-26T17:59:30.737Z,67.00
2018-03-26T18:04:33.050Z,69.70
2018-03-26T18:09:34.618Z,69.20
2018-03-26T18:14:36.138Z,69.40
2018-03-26T18:19:37.693Z,68.90
2018-03-26T18:24:39.305Z,66.30
2018-03-26T18:29:41.611Z,57.50
2018-03-26T18:34:43.173Z,57.50
2018-03-26T18:39:45.469Z,53.40
2018-03-26T18:44:47.025Z,53.30
2018-03-26T18:49:48.623Z,51.40
2018-03-26T18:54:50.205Z,49.80
2018-03-26T18:59:51.749Z,51.50
2018-03-26T19:04:53.585Z,48.70
2018-03-26T19:09:55.133Z,49.90
2018-03-26T19:14:57.511Z,48.90
2018-03-26T19:19:59.068Z,48.90
2018-03-26T19:25:00.676Z,48.10
2018-03-26T19:30:02.263Z,48.00
2018-03-26T19:35:03.792Z,48.20
2018-03-26T19:40:05.348Z,49.00
2018-03-26T19:45:06.991Z,48.10
2018-03-26T19:50:08.555Z,49.10
2018-03-26T19:55:10.039Z,49.80
2018-03-26T20:00:11.566Z,49.70
2018-03-26T20:05:13.976Z,49.30
2018-03-26T20:10:15.547Z,49.30
2018-03-26T20:15:24.252Z,49.60
2018-03-26T20:20:32.719Z,49.50
2018-03-26T20:25:34.312Z,50.10
2018-03-26T20:30:36.009Z,51.80
2018-03-26T20:35:37.598Z,50.20
2018-03-26T20:40:40.056Z,49.50
2018-03-26T20:45:41.760Z,49.50
2018-03-26T20:50:44.103Z,50.90
2018-03-26T20:55:45.713Z,50.80
2018-03-26T21:00:48.071Z,51.90
2018-03-26T21:05:49.844Z,51.90
2018-03-26T21:10:51.433Z,52.70
2018-03-26T21:15:53.000Z,53.60
2018-03-26T21:20:54.505Z,54.50
2018-03-26T21:25:56.217Z,54.60
2018-03-26T21:30:57.779Z,55.10
2018-03-26T21:35:59.357Z,55.00
2018-03-26T21:41:00.958Z,54.90
2018-03-26T21:46:03.250Z,56.10
2018-03-26T21:51:05.637Z,57.40
2018-03-26T21:56:07.117Z,56.70
2018-03-26T22:01:08.660Z,56.60
2018-03-26T22:06:10.882Z,56.00
2018-03-26T22:11:12.402Z,55.80
2018-03-26T22:16:14.640Z,54.10
2018-03-26T22:21:16.131Z,53.40
2018-03-26T22:26:17.634Z,52.60
2018-03-26T22:31:19.937Z,57.10
2018-03-26T22:36:21.409Z,57.00
2018-03-26T22:41:22.946Z,59.60
2018-03-26T22:46:25.413Z,61.80
2018-03-26T22:51:26.930Z,61.70
2018-03-26T22:56:28.444Z,63.10
2018-03-26T23:01:30.074Z,64.10
2018-03-26T23:06:31.577Z,64.90
2018-03-26T23:11:33.081Z,64.70
2018-03-26T23:16:35.356Z,66.00
2018-03-26T23:21:37.639Z,65.30
2018-03-26T23:26:39.922Z,66.70
2018-03-26T23:31:41.461Z,66.60
2018-03-26T23:36:43.041Z,66.20
2018-03-26T23:41:44.733Z,66.10
2018-03-26T23:46:47.072Z,65.20
2018-03-26T23:51:48.607Z,65.10
2018-03-26T23:56:50.254Z,62.50
